createdAt,value
2023-07-27T00:01:44.353Z,1.70
2023-07-27T00:06:50.045Z,2.00
2023-07-27T00:11:57.293Z,1.90
2023-07-27T00:17:02.997Z,1.60
2023-07-27T00:22:09.373Z,1.90
2023-07-27T00:27:15.324Z,1.50
2023-07-27T00:32:21.224Z,1.80
2023-07-27T00:37:26.779Z,1.80
2023-07-27T00:42:32.336Z,1.80
2023-07-27T00:47:38.296Z,1.90
2023-07-27T00:52:45.045Z,2.10
2023-07-27T00:57:50.779Z,2.30
2023-07-27T01:02:56.752Z,2.30
2023-07-27T01:08:02.804Z,1.60
2023-07-27T01:13:14.083Z,1.90
2023-07-27T01:18:26.979Z,1.80
2023-07-27T01:23:59.650Z,2.10
2023-07-27T01:29:20.724Z,2.00
2023-07-27T01:39:41.065Z,2.00
2023-07-27T01:44:48.839Z,1.80
2023-07-27T01:49:56.300Z,2.20
2023-07-27T01:55:03.680Z,2.20
2023-07-27T02:00:11.292Z,1.80
2023-07-27T02:05:21.365Z,1.70
2023-07-27T02:10:28.562Z,1.70
2023-07-27T02:15:48.572Z,1.90
2023-07-27T02:20:55.473Z,2.20
2023-07-27T02:26:01.236Z,2.20
2023-07-27T02:31:07.150Z,2.10
2023-07-27T02:36:12.727Z,1.90
2023-07-27T02:41:19.081Z,1.80
2023-07-27T02:46:24.960Z,2.00
2023-07-27T02:51:30.864Z,1.80
2023-07-27T02:56:37.526Z,1.80
2023-07-27T03:01:43.212Z,2.10
2023-07-27T03:06:56.898Z,5.20
2023-07-27T03:12:03.046Z,3.60
2023-07-27T03:17:09.591Z,3.40
2023-07-27T03:22:15.283Z,2.80
2023-07-27T03:27:21.107Z,2.20
2023-07-27T03:32:26.721Z,2.50
2023-07-27T03:37:32.294Z,2.60
2023-07-27T03:42:37.774Z,2.90
2023-07-27T03:47:46.329Z,2.50
2023-07-27T03:52:52.306Z,2.40
2023-07-27T04:02:41.857Z,2.40
2023-07-27T04:07:51.041Z,2.60
2023-07-27T04:13:00.789Z,2.40
2023-07-27T04:18:07.783Z,1.90
2023-07-27T04:23:15.739Z,2.30
2023-07-27T04:28:22.867Z,2.60
2023-07-27T04:33:30.493Z,2.70
2023-07-27T04:38:36.615Z,2.30
2023-07-27T04:43:44.217Z,2.40
2023-07-27T04:48:50.184Z,1.90
2023-07-27T04:53:56.221Z,2.20
2023-07-27T04:59:02.179Z,2.30
2023-07-27T05:04:08.849Z,1.80
2023-07-27T05:09:15.547Z,1.50
2023-07-27T05:14:21.132Z,1.30
2023-07-27T05:19:26.746Z,1.10
2023-07-27T05:24:33.683Z,1.20
2023-07-27T05:29:39.548Z,1.00
2023-07-27T05:34:45.487Z,1.00
2023-07-27T05:39:52.094Z,1.10
2023-07-27T05:44:59.176Z,1.00
2023-07-27T05:50:06.098Z,1.40
2023-07-27T05:55:16.799Z,1.90
2023-07-27T06:00:27.615Z,2.00
2023-07-27T06:05:46.447Z,2.00
2023-07-27T06:11:02.790Z,2.30
2023-07-27T06:16:10.453Z,2.10
2023-07-27T06:21:16.906Z,1.70
2023-07-27T06:26:25.259Z,2.30
2023-07-27T06:31:31.220Z,1.80
2023-07-27T06:36:44.897Z,1.80
2023-07-27T06:41:53.052Z,2.10
2023-07-27T06:47:07.746Z,2.10
2023-07-27T06:52:14.065Z,1.90
2023-07-27T06:57:20.432Z,1.70
2023-07-27T07:02:38.274Z,1.40
2023-07-27T07:07:53.908Z,1.20
2023-07-27T07:13:01.535Z,1.40
2023-07-27T07:18:28.941Z,1.20
2023-07-27T07:23:34.783Z,1.10
2023-07-27T07:28:41.227Z,1.30
2023-07-27T07:33:47.218Z,1.10
2023-07-27T07:38:53.693Z,1.20
2023-07-27T07:43:59.388Z,1.30
2023-07-27T07:49:05.681Z,1.30
2023-07-27T07:54:11.365Z,1.20
2023-07-27T07:59:17.193Z,1.40
2023-07-27T08:04:22.933Z,1.20
2023-07-27T08:09:29.879Z,1.40
2023-07-27T08:14:35.842Z,1.40
2023-07-27T08:19:41.708Z,1.30
2023-07-27T08:24:47.451Z,1.30
2023-07-27T08:29:53.430Z,0.90
2023-07-27T08:34:59.033Z,1.20
2023-07-27T08:40:10.288Z,1.20
2023-07-27T08:45:24.386Z,1.20
2023-07-27T08:50:32.813Z,1.10
2023-07-27T08:55:42.437Z,1.30
2023-07-27T09:00:48.356Z,1.10
2023-07-27T09:06:02.112Z,1.20
2023-07-27T09:11:10.911Z,1.30
2023-07-27T09:16:25.407Z,1.20
2023-07-27T09:21:41.251Z,1.10
2023-07-27T09:26:50.314Z,1.10
2023-07-27T09:32:00.113Z,1.40
2023-07-27T09:37:11.258Z,1.10
2023-07-27T09:42:20.138Z,1.10
2023-07-27T09:47:31.704Z,1.40
2023-07-27T09:52:40.488Z,1.40
2023-07-27T09:57:47.786Z,1.50
2023-07-27T10:02:59.607Z,1.20
2023-07-27T10:08:16.748Z,1.10
2023-07-27T10:13:42.239Z,1.20
2023-07-27T10:18:50.493Z,1.30
2023-07-27T10:23:58.367Z,1.20
2023-07-27T10:29:15.638Z,1.10
2023-07-27T10:34:25.684Z,1.00
2023-07-27T10:39:36.140Z,1.10
2023-07-27T10:44:46.951Z,1.10
2023-07-27T10:49:54.267Z,1.00
2023-07-27T10:55:01.315Z,1.10
2023-07-27T11:00:10.434Z,1.00
2023-07-27T11:05:16.426Z,1.10
2023-07-27T11:10:34.189Z,1.00
2023-07-27T11:15:40.351Z,0.80
2023-07-27T11:20:47.789Z,1.00
2023-07-27T11:25:56.097Z,1.00
2023-07-27T11:31:08.126Z,1.00
2023-07-27T11:36:14.080Z,1.00
2023-07-27T11:46:50.150Z,0.90
2023-07-27T11:51:59.099Z,0.80
2023-07-27T11:57:05.854Z,1.00
2023-07-27T12:02:13.564Z,0.90
2023-07-27T12:07:26.955Z,0.90
2023-07-27T12:17:52.814Z,1.10
2023-07-27T12:23:30.115Z,0.90
2023-07-27T12:33:33.939Z,0.80
2023-07-27T12:43:48.113Z,0.70
2023-07-27T12:48:55.627Z,0.80
2023-07-27T12:54:05.409Z,0.80
2023-07-27T12:59:13.009Z,0.80
2023-07-27T13:04:18.769Z,0.90
2023-07-27T13:09:24.711Z,0.90
2023-07-27T13:14:31.380Z,0.90
2023-07-27T13:19:37.204Z,0.80
2023-07-27T13:24:42.986Z,0.70
2023-07-27T13:29:49.327Z,0.80
2023-07-27T13:34:55.692Z,0.70
2023-07-27T13:40:02.917Z,0.80
2023-07-27T13:45:11.099Z,0.80
2023-07-27T13:50:18.574Z,0.80
2023-07-27T13:55:24.811Z,0.80
2023-07-27T14:00:32.644Z,0.90
2023-07-27T14:05:40.083Z,0.80
2023-07-27T14:10:46.463Z,0.90
2023-07-27T14:15:52.906Z,1.00
2023-07-27T14:20:58.721Z,1.00
2023-07-27T14:26:05.785Z,0.90
2023-07-27T14:31:13.855Z,1.00
2023-07-27T14:36:20.559Z,0.90
2023-07-27T14:41:27.604Z,0.90
2023-07-27T14:46:35.483Z,1.00
2023-07-27T14:51:41.978Z,0.90
2023-07-27T14:56:49.495Z,1.10
2023-07-27T15:01:58.723Z,1.10
2023-07-27T15:07:06.843Z,1.00
2023-07-27T15:12:16.068Z,1.00
2023-07-27T15:17:22.362Z,1.00
2023-07-27T15:22:28.802Z,1.30
2023-07-27T15:27:35.123Z,1.30
2023-07-27T15:32:42.281Z,1.20
2023-07-27T15:37:48.177Z,1.30
2023-07-27T15:42:54.935Z,1.10
2023-07-27T15:48:02.584Z,1.10
2023-07-27T15:53:09.954Z,1.10
2023-07-27T15:58:16.020Z,1.00
2023-07-27T16:03:22.337Z,1.10
2023-07-27T16:08:28.626Z,1.20
2023-07-27T16:13:34.817Z,1.20
2023-07-27T16:18:40.539Z,1.00
2023-07-27T16:23:46.654Z,1.00
2023-07-27T16:28:52.418Z,1.10
2023-07-27T16:33:58.268Z,1.10
2023-07-27T16:39:04.284Z,1.00
2023-07-27T16:44:10.688Z,1.40
2023-07-27T16:49:16.650Z,1.00
2023-07-27T16:54:22.427Z,1.20
2023-07-27T16:59:28.345Z,1.40
2023-07-27T17:04:37.781Z,1.40
2023-07-27T17:14:50.820Z,1.50
2023-07-27T17:19:57.222Z,1.60
2023-07-27T17:25:03.316Z,1.40
2023-07-27T17:30:13.292Z,2.20
2023-07-27T17:35:19.260Z,1.60
2023-07-27T17:40:25.491Z,1.40
2023-07-27T17:45:32.540Z,1.40
2023-07-27T17:50:38.589Z,2.30
2023-07-27T17:55:44.054Z,2.50
2023-07-27T18:00:49.973Z,3.50
2023-07-27T18:05:57.738Z,4.70
2023-07-27T18:11:10.141Z,3.80
2023-07-27T18:16:24.567Z,4.70
2023-07-27T18:21:30.756Z,8.00
2023-07-27T18:26:37.891Z,12.20
2023-07-27T18:31:43.594Z,14.60
2023-07-27T18:36:51.164Z,17.50
2023-07-27T18:42:18.307Z,20.10
2023-07-27T18:47:31.516Z,18.60
2023-07-27T18:52:39.873Z,21.60
2023-07-27T18:57:45.683Z,29.60
2023-07-27T19:02:51.823Z,25.10
2023-07-27T19:07:57.711Z,22.50
2023-07-27T19:13:03.682Z,29.40
2023-07-27T19:18:09.832Z,35.00
2023-07-27T19:23:19.114Z,31.70
2023-07-27T19:28:25.853Z,23.50
2023-07-27T19:33:34.440Z,17.90
2023-07-27T19:38:44.547Z,19.60
2023-07-27T19:43:53.253Z,23.40
2023-07-27T19:48:59.330Z,41.50
2023-07-27T19:54:05.761Z,34.50
2023-07-27T19:59:13.055Z,18.80
2023-07-27T20:04:19.045Z,7.30
2023-07-27T20:09:25.144Z,8.30
2023-07-27T20:14:35.479Z,7.80
2023-07-27T20:19:44.963Z,6.00
2023-07-27T20:24:53.110Z,5.30
2023-07-27T20:30:00.721Z,5.10
2023-07-27T20:35:16.945Z,6.00
2023-07-27T20:40:27.115Z,5.60
2023-07-27T20:45:37.786Z,6.60
2023-07-27T20:50:48.892Z,7.00
2023-07-27T20:55:57.393Z,5.60
2023-07-27T21:01:06.397Z,7.30
2023-07-27T21:06:12.415Z,5.80
2023-07-27T21:11:20.679Z,5.30
2023-07-27T21:16:26.921Z,4.90
2023-07-27T21:21:34.837Z,4.80
2023-07-27T21:26:42.408Z,4.80
2023-07-27T21:31:49.111Z,4.40
2023-07-27T21:36:56.585Z,4.70
2023-07-27T21:42:02.584Z,5.00
2023-07-27T21:47:09.764Z,4.90
2023-07-27T21:52:17.760Z,4.80
2023-07-27T21:57:24.641Z,4.60
2023-07-27T22:02:31.787Z,4.50
2023-07-27T22:07:39.016Z,4.30
2023-07-27T22:12:50.589Z,5.30
2023-07-27T22:18:10.299Z,5.20
2023-07-27T22:23:16.463Z,5.20
2023-07-27T22:28:22.084Z,4.90
2023-07-27T22:33:27.975Z,5.20
2023-07-27T22:38:33.884Z,5.30
2023-07-27T22:43:39.761Z,5.40
2023-07-27T22:48:45.577Z,5.30
2023-07-27T22:53:51.576Z,4.20
2023-07-27T22:58:57.738Z,4.30
2023-07-27T23:04:03.429Z,4.30
2023-07-27T23:09:09.494Z,4.80
2023-07-27T23:14:15.485Z,4.90
2023-07-27T23:19:21.556Z,4.90
2023-07-27T23:24:27.372Z,4.50
2023-07-27T23:29:32.934Z,3.60
2023-07-27T23:34:38.617Z,4.10
2023-07-27T23:39:44.337Z,4.20
2023-07-27T23:44:50.234Z,4.40
2023-07-27T23:49:55.956Z,4.40
2023-07-27T23:55:01.579Z,4.70
